createdAt,value
2023-05-22T00:00:20.316Z,100272.88
2023-05-22T00:01:42.953Z,100267.88
2023-05-22T00:03:08.628Z,100263.72
2023-05-22T00:04:31.482Z,100266.66
2023-05-22T00:06:00.421Z,100267.47
2023-05-22T00:07:27.559Z,100267.94
2023-05-22T00:08:49.540Z,100262.72
2023-05-22T00:10:11.580Z,100262.94
2023-05-22T00:11:34.952Z,100266.13
2023-05-22T00:12:56.143Z,100262.78
2023-05-22T00:14:18.227Z,100253.22
2023-05-22T00:15:40.564Z,100268.44
2023-05-22T00:17:03.683Z,100270.53
2023-05-22T00:18:28.181Z,100276.22
2023-05-22T00:19:51.668Z,100264.94
2023-05-22T00:21:14.001Z,100265.16
2023-05-22T00:22:36.776Z,100265.38
2023-05-22T00:23:57.777Z,100261.00
2023-05-22T00:25:21.323Z,100255.56
2023-05-22T00:26:49.896Z,100258.53
2023-05-22T00:28:12.130Z,100269.00
2023-05-22T00:29:34.767Z,100270.03
2023-05-22T00:31:02.066Z,100267.56
2023-05-22T00:32:37.930Z,100266.53
2023-05-22T00:33:59.290Z,100261.16
2023-05-22T00:35:23.125Z,100275.59
2023-05-22T00:36:44.778Z,100273.91
2023-05-22T00:38:06.991Z,100271.47
2023-05-22T00:39:27.940Z,100269.56
2023-05-22T00:40:50.182Z,100258.94
2023-05-22T00:42:12.719Z,100262.09
2023-05-22T00:43:35.345Z,100268.34
2023-05-22T00:44:56.236Z,100265.84
2023-05-22T00:46:21.692Z,100263.56
2023-05-22T00:47:44.425Z,100263.78
2023-05-22T00:49:05.689Z,100263.78
2023-05-22T00:50:29.632Z,100266.75
2023-05-22T00:51:52.884Z,100266.75
2023-05-22T00:53:15.756Z,100263.59
2023-05-22T00:54:37.378Z,100268.41
2023-05-22T00:56:00.249Z,100267.63
2023-05-22T00:57:22.264Z,100264.69
2023-05-22T00:58:44.467Z,100257.81
2023-05-22T01:00:06.752Z,100257.63
2023-05-22T01:01:33.789Z,100264.09
2023-05-22T01:02:55.661Z,100262.44
2023-05-22T01:04:18.736Z,100262.66
2023-05-22T01:05:43.154Z,100266.41
2023-05-22T01:07:06.267Z,100257.63
2023-05-22T01:08:29.923Z,100265.19
2023-05-22T01:09:52.706Z,100264.34
2023-05-22T01:11:19.494Z,100268.94
2023-05-22T01:12:48.518Z,100265.41
2023-05-22T01:14:17.340Z,100261.84
2023-05-22T01:15:45.613Z,100272.09
2023-05-22T01:17:22.912Z,100265.44
2023-05-22T01:18:50.034Z,100267.94
2023-05-22T01:20:22.298Z,100271.31
2023-05-22T01:21:55.281Z,100274.22
2023-05-22T01:24:02.708Z,100278.22
2023-05-22T01:25:47.689Z,100272.59
2023-05-22T01:27:35.360Z,100277.19
2023-05-22T01:29:13.014Z,100277.00
2023-05-22T01:31:02.021Z,100268.84
2023-05-22T01:32:27.328Z,100274.28
2023-05-22T01:33:52.782Z,100270.75
2023-05-22T01:35:17.866Z,100270.94
2023-05-22T01:36:41.632Z,100279.09
2023-05-22T01:38:03.948Z,100269.75
2023-05-22T01:39:31.982Z,100274.94
2023-05-22T01:40:54.294Z,100276.63
2023-05-22T01:42:16.882Z,100274.09
2023-05-22T01:43:38.281Z,100278.47
2023-05-22T01:45:01.696Z,100277.88
2023-05-22T01:46:26.657Z,100282.50
2023-05-22T01:47:49.137Z,100280.00
2023-05-22T01:49:13.405Z,100276.22
2023-05-22T01:50:34.656Z,100281.66
2023-05-22T01:52:02.648Z,100280.19
2023-05-22T01:53:31.612Z,100288.34
2023-05-22T01:55:03.741Z,100275.19
2023-05-22T01:56:36.733Z,100284.16
2023-05-22T01:58:03.913Z,100268.94
2023-05-22T01:59:34.348Z,100276.47
2023-05-22T02:00:57.693Z,100272.09
2023-05-22T02:02:22.821Z,100265.19
2023-05-22T02:03:46.690Z,100275.00
2023-05-22T02:05:12.658Z,100277.09
2023-05-22T02:06:34.101Z,100272.72
2023-05-22T02:07:59.809Z,100272.94
2023-05-22T02:09:25.346Z,100272.28
2023-05-22T02:10:49.428Z,100273.34
2023-05-22T02:12:11.290Z,100263.75
2023-05-22T02:13:33.833Z,100262.94
2023-05-22T02:14:56.656Z,100271.72
2023-05-22T02:16:19.514Z,100263.75
2023-05-22T02:17:43.143Z,100257.94
2023-05-22T02:19:06.366Z,100264.81
2023-05-22T02:20:29.092Z,100262.09
2023-05-22T02:21:50.135Z,100264.19
2023-05-22T02:23:13.636Z,100260.84
2023-05-22T02:24:37.045Z,100261.91
2023-05-22T02:25:59.188Z,100261.06
2023-05-22T02:27:21.300Z,100251.25
2023-05-22T02:28:44.080Z,100258.78
2023-05-22T02:30:07.835Z,100262.75
2023-05-22T02:31:32.141Z,100263.56
2023-05-22T02:33:24.979Z,100264.22
2023-05-22T02:34:49.217Z,100257.94
2023-05-22T02:36:12.998Z,100269.44
2023-05-22T02:37:35.422Z,100264.22
2023-05-22T02:38:56.865Z,100271.53
2023-05-22T02:40:18.948Z,100274.47
2023-05-22T02:41:40.007Z,100266.31
2023-05-22T02:43:02.316Z,100257.94
2023-05-22T02:44:24.545Z,100267.34
2023-05-22T02:45:46.801Z,100260.47
2023-05-22T02:47:08.279Z,100260.66
2023-05-22T02:48:31.958Z,100261.50
2023-05-22T02:49:53.147Z,100258.97
2023-05-22T02:51:15.362Z,100264.41
2023-05-22T02:52:37.343Z,100266.28
2023-05-22T02:53:59.395Z,100268.38
2023-05-22T02:55:20.595Z,100256.06
2023-05-22T02:56:42.980Z,100267.56
2023-05-22T02:58:05.001Z,100264.00
2023-05-22T02:59:29.017Z,100267.78
2023-05-22T03:00:50.477Z,100264.22
2023-05-22T03:02:14.017Z,100262.56
2023-05-22T03:03:37.496Z,100257.56
2023-05-22T03:04:59.827Z,100257.13
2023-05-22T03:06:23.448Z,100260.03
2023-05-22T03:07:48.342Z,100255.66
2023-05-22T03:09:11.619Z,100262.34
2023-05-22T03:10:33.051Z,100264.00
2023-05-22T03:11:55.524Z,100262.34
2023-05-22T03:13:16.392Z,100259.00
2023-05-22T03:14:38.570Z,100257.56
2023-05-22T03:16:00.249Z,100268.81
2023-05-22T03:17:23.144Z,100263.59
2023-05-22T03:18:47.203Z,100258.19
2023-05-22T03:20:10.952Z,100256.94
2023-05-22T03:21:32.692Z,100259.84
2023-05-22T03:22:54.854Z,100254.66
2023-05-22T03:24:17.604Z,100256.94
2023-05-22T03:25:39.560Z,100263.19
2023-05-22T03:27:01.827Z,100252.13
2023-05-22T03:28:36.713Z,100258.59
2023-05-22T03:29:59.133Z,100253.78
2023-05-22T03:31:20.212Z,100252.97
2023-05-22T03:32:58.985Z,100258.19
2023-05-22T03:34:23.874Z,100254.63
2023-05-22T03:35:45.778Z,100256.31
2023-05-22T03:37:09.170Z,100251.91
2023-05-22T03:38:31.570Z,100258.78
2023-05-22T03:39:53.113Z,100256.72
2023-05-22T03:41:23.365Z,100257.13
2023-05-22T03:42:46.058Z,100264.44
2023-05-22T03:44:07.298Z,100255.88
2023-05-22T03:45:29.892Z,100256.69
2023-05-22T03:46:59.920Z,100256.69
2023-05-22T03:48:23.202Z,100254.41
2023-05-22T03:49:48.962Z,100252.31
2023-05-22T03:51:11.387Z,100254.81
2023-05-22T03:52:33.061Z,100259.22
2023-05-22T03:53:55.215Z,100261.69
2023-05-22T03:55:17.909Z,100256.91
2023-05-22T03:56:40.420Z,100247.72
2023-05-22T03:58:03.359Z,100254.22
2023-05-22T03:59:24.996Z,100262.13
2023-05-22T04:00:47.618Z,100256.06
2023-05-22T04:02:13.288Z,100258.19
2023-05-22T04:03:35.629Z,100263.38
2023-05-22T04:04:59.351Z,100255.88
2023-05-22T04:06:24.406Z,100243.94
2023-05-22T04:07:46.828Z,100252.09
2023-05-22T04:09:08.565Z,100255.00
2023-05-22T04:10:30.992Z,100253.72
2023-05-22T04:11:53.416Z,100258.31
2023-05-22T04:13:19.069Z,100258.50
2023-05-22T04:14:41.042Z,100257.00
2023-05-22T04:16:02.306Z,100254.28
2023-05-22T04:17:26.883Z,100253.44
2023-05-22T04:18:49.137Z,100257.78
2023-05-22T04:20:16.933Z,100256.28
2023-05-22T04:21:39.448Z,100252.50
2023-05-22T04:23:01.203Z,100244.53
2023-05-22T04:24:23.641Z,100256.19
2023-05-22T04:25:48.011Z,100248.00
2023-05-22T04:27:15.464Z,100254.88
2023-05-22T04:28:36.823Z,100255.44
2023-05-22T04:30:00.224Z,100252.50
2023-05-22T04:31:23.284Z,100254.94
2023-05-22T04:32:45.573Z,100241.50
2023-05-22T04:34:08.121Z,100252.88
2023-05-22T04:36:13.148Z,100250.13
2023-05-22T04:37:37.158Z,100247.44
2023-05-22T04:39:00.548Z,100248.97
2023-05-22T04:40:23.228Z,100248.44
2023-05-22T04:41:46.121Z,100252.81
2023-05-22T04:43:07.828Z,100247.75
2023-05-22T04:44:30.705Z,100250.84
2023-05-22T04:45:54.280Z,100248.66
2023-05-22T04:47:16.512Z,100246.75
2023-05-22T04:48:38.848Z,100255.94
2023-05-22T04:50:02.744Z,100245.06
2023-05-22T04:51:24.117Z,100254.56
2023-05-22T04:52:48.495Z,100249.97
2023-05-22T04:54:09.660Z,100252.47
2023-05-22T04:55:34.064Z,100245.59
2023-05-22T04:56:56.444Z,100251.38
2023-05-22T04:58:18.222Z,100250.22
2023-05-22T04:59:41.486Z,100254.13
2023-05-22T05:01:05.249Z,100249.94
2023-05-22T05:02:27.617Z,100253.06
2023-05-22T05:03:50.152Z,100255.34
2023-05-22T05:05:12.234Z,100250.44
2023-05-22T05:06:36.011Z,100257.31
2023-05-22T05:08:02.913Z,100252.63
2023-05-22T05:09:24.622Z,100251.53
2023-05-22T05:10:46.864Z,100251.25
2023-05-22T05:12:14.742Z,100255.81
2023-05-22T05:13:37.585Z,100260.97
2023-05-22T05:14:58.445Z,100260.91
2023-05-22T05:16:20.844Z,100265.41
2023-05-22T05:17:43.035Z,100256.56
2023-05-22T05:19:05.372Z,100265.75
2023-05-22T05:20:34.799Z,100261.47
2023-05-22T05:21:57.436Z,100258.09
2023-05-22T05:23:22.510Z,100253.56
2023-05-22T05:24:44.478Z,100260.00
2023-05-22T05:26:07.405Z,100259.25
2023-05-22T05:27:29.779Z,100253.31
2023-05-22T05:28:54.873Z,100263.28
2023-05-22T05:30:20.544Z,100254.00
2023-05-22T05:32:01.603Z,100259.81
2023-05-22T05:33:50.615Z,100257.97
2023-05-22T05:35:25.103Z,100256.59
2023-05-22T05:37:03.099Z,100257.44
2023-05-22T05:38:28.107Z,100259.09
2023-05-22T05:39:50.952Z,100259.06
2023-05-22T05:41:13.397Z,100264.03
2023-05-22T05:42:44.489Z,100257.16
2023-05-22T05:44:08.266Z,100259.03
2023-05-22T05:45:31.038Z,100249.88
2023-05-22T05:46:54.975Z,100262.78
2023-05-22T05:48:17.576Z,100264.44
2023-05-22T05:49:42.684Z,100252.00
2023-05-22T05:51:05.229Z,100265.75
2023-05-22T05:52:36.423Z,100256.88
2023-05-22T05:54:06.843Z,100256.28
2023-05-22T05:55:31.185Z,100263.66
2023-05-22T05:56:54.668Z,100251.97
2023-05-22T05:58:19.734Z,100258.47
2023-05-22T06:00:00.483Z,100265.50
2023-05-22T06:01:40.077Z,100252.09
2023-05-22T06:03:08.622Z,100257.97
2023-05-22T06:04:48.920Z,100258.28
2023-05-22T06:06:14.344Z,100256.09
2023-05-22T06:08:11.569Z,100260.50
2023-05-22T06:09:37.793Z,100255.59
2023-05-22T06:11:06.429Z,100248.63
2023-05-22T06:12:54.976Z,100251.03
2023-05-22T06:14:17.357Z,100255.56
2023-05-22T06:15:39.729Z,100255.72
2023-05-22T06:17:02.264Z,100262.03
2023-05-22T06:18:26.004Z,100258.47
2023-05-22T06:19:48.973Z,100259.31
2023-05-22T06:21:14.096Z,100259.94
2023-05-22T06:22:35.901Z,100256.84
2023-05-22T06:23:58.927Z,100259.94
2023-05-22T06:25:23.909Z,100251.47
2023-05-22T06:26:48.365Z,100254.31
2023-05-22T06:28:10.691Z,100260.66
2023-05-22T06:29:33.333Z,100256.09
2023-05-22T06:30:57.296Z,100252.00
2023-05-22T06:32:20.734Z,100263.69
2023-05-22T06:33:44.535Z,100259.31
2023-05-22T06:35:08.021Z,100271.84
2023-05-22T06:36:30.335Z,100260.97
2023-05-22T06:37:54.855Z,100270.56
2023-05-22T06:39:17.273Z,100270.75
2023-05-22T06:41:16.257Z,100265.75
2023-05-22T06:42:41.637Z,100261.63
2023-05-22T06:44:22.685Z,100270.38
2023-05-22T06:45:49.556Z,100272.59
2023-05-22T06:47:28.379Z,100269.19
2023-05-22T06:48:50.800Z,100263.47
2023-05-22T06:50:57.472Z,100269.56
2023-05-22T06:52:21.635Z,100266.50
2023-05-22T06:53:46.511Z,100272.19
2023-05-22T06:55:14.098Z,100286.81
2023-05-22T06:56:51.279Z,100274.28
2023-05-22T06:58:15.457Z,100269.91
2023-05-22T06:59:38.051Z,100280.19
2023-05-22T07:01:00.445Z,100276.97
2023-05-22T07:02:30.455Z,100281.44
2023-05-22T07:04:18.465Z,100286.69
2023-05-22T07:06:02.420Z,100291.88
2023-05-22T07:07:23.365Z,100292.63
2023-05-22T07:08:45.691Z,100287.00
2023-05-22T07:10:09.358Z,100285.88
2023-05-22T07:11:31.785Z,100278.50
2023-05-22T07:12:55.486Z,100281.59
2023-05-22T07:14:18.518Z,100279.38
2023-05-22T07:15:41.261Z,100284.44
2023-05-22T07:17:03.978Z,100284.53
2023-05-22T07:18:31.480Z,100296.00
2023-05-22T07:19:54.290Z,100277.13
2023-05-22T07:21:17.151Z,100285.66
2023-05-22T07:22:39.991Z,100297.72
2023-05-22T07:24:08.127Z,100288.66
2023-05-22T07:25:41.929Z,100291.59
2023-05-22T07:27:04.580Z,100293.19
2023-05-22T07:28:30.089Z,100286.63
2023-05-22T07:30:01.374Z,100289.94
2023-05-22T07:31:24.925Z,100295.59
2023-05-22T07:32:50.668Z,100296.56
2023-05-22T07:34:13.551Z,100295.50
2023-05-22T07:35:36.144Z,100292.75
2023-05-22T07:37:01.531Z,100292.03
2023-05-22T07:38:25.461Z,100294.06
2023-05-22T07:39:55.805Z,100290.84
2023-05-22T07:41:18.730Z,100293.63
2023-05-22T07:42:41.900Z,100282.28
2023-05-22T07:44:08.333Z,100284.59
2023-05-22T07:45:32.993Z,100286.53
2023-05-22T07:46:59.691Z,100287.22
2023-05-22T07:48:25.983Z,100278.88
2023-05-22T07:49:48.832Z,100277.69
2023-05-22T07:51:11.163Z,100280.88
2023-05-22T07:52:35.752Z,100281.34
2023-05-22T07:55:26.282Z,100275.91
2023-05-22T07:56:48.825Z,100276.34
2023-05-22T07:58:11.723Z,100277.38
2023-05-22T07:59:38.649Z,100299.91
2023-05-22T08:08:06.748Z,100282.28
2023-05-22T08:09:28.836Z,100271.25
2023-05-22T08:11:02.894Z,100269.88
2023-05-22T08:12:26.005Z,100276.81
2023-05-22T08:13:46.979Z,100278.81
2023-05-22T08:15:11.183Z,100277.97
2023-05-22T08:16:32.852Z,100279.69
2023-05-22T08:17:55.166Z,100279.16
2023-05-22T08:19:17.358Z,100275.66
2023-05-22T08:20:40.089Z,100270.66
2023-05-22T08:22:02.804Z,100276.16
2023-05-22T08:23:25.389Z,100267.31
2023-05-22T08:24:47.752Z,100283.84
2023-05-22T08:26:10.177Z,100274.72
2023-05-22T08:27:32.453Z,100269.38
2023-05-22T08:28:54.669Z,100275.84
2023-05-22T08:30:18.233Z,100267.78
2023-05-22T08:31:40.568Z,100269.16
2023-05-22T08:33:05.638Z,100264.75
2023-05-22T08:34:28.621Z,100264.34
2023-05-22T08:35:51.356Z,100269.66
2023-05-22T08:37:18.889Z,100263.75
2023-05-22T08:38:44.223Z,100273.03
2023-05-22T08:40:12.621Z,100270.66
2023-05-22T08:41:34.941Z,100261.59
2023-05-22T08:42:58.038Z,100265.47
2023-05-22T08:44:21.157Z,100259.47
2023-05-22T08:45:47.359Z,100263.03
2023-05-22T08:47:14.283Z,100254.56
2023-05-22T08:48:36.939Z,100255.72
2023-05-22T08:50:02.913Z,100258.97
2023-05-22T08:51:58.347Z,100242.97
2023-05-22T08:53:24.617Z,100246.69
2023-05-22T08:54:53.311Z,100239.25
2023-05-22T08:56:16.138Z,100249.66
2023-05-22T08:57:39.218Z,100242.09
2023-05-22T08:59:02.001Z,100242.22
2023-05-22T09:00:24.671Z,100240.28
2023-05-22T09:01:49.379Z,100241.44
2023-05-22T09:03:14.071Z,100242.94
2023-05-22T09:04:45.244Z,100238.34
2023-05-22T09:06:11.329Z,100241.50
2023-05-22T09:07:34.054Z,100222.59
2023-05-22T09:08:56.736Z,100215.09
2023-05-22T09:10:18.799Z,100223.78
2023-05-22T09:12:11.989Z,100206.50
2023-05-22T09:13:34.341Z,100222.53
2023-05-22T09:15:08.341Z,100214.28
2023-05-22T09:16:33.374Z,100213.31
2023-05-22T09:17:59.804Z,100195.31
2023-05-22T09:19:22.487Z,100206.34
2023-05-22T09:20:45.098Z,100196.53
2023-05-22T09:22:07.634Z,100196.13
2023-05-22T09:23:30.137Z,100197.47
2023-05-22T09:24:52.664Z,100196.63
2023-05-22T09:26:15.001Z,100190.19
2023-05-22T09:27:37.596Z,100194.88
2023-05-22T09:29:01.377Z,100187.56
2023-05-22T09:31:18.084Z,100190.44
2023-05-22T09:32:43.168Z,100191.28
2023-05-22T09:34:08.324Z,100189.47
2023-05-22T09:35:58.100Z,100182.31
2023-05-22T09:37:24.270Z,100191.31
2023-05-22T09:42:17.253Z,100181.34
2023-05-22T09:43:39.565Z,100182.88
2023-05-22T09:45:15.256Z,100164.03
2023-05-22T09:46:44.718Z,100156.03
2023-05-22T09:48:08.406Z,100156.47
2023-05-22T09:49:32.164Z,100159.41
2023-05-22T09:50:56.129Z,100155.94
2023-05-22T09:52:21.030Z,100163.53
2023-05-22T09:53:44.737Z,100156.56
2023-05-22T09:55:08.944Z,100155.63
2023-05-22T09:56:39.804Z,100156.72
2023-05-22T09:58:05.948Z,100152.22
2023-05-22T09:59:31.632Z,100160.97
2023-05-22T10:00:54.682Z,100173.09
2023-05-22T10:02:17.255Z,100154.03
2023-05-22T10:03:42.334Z,100147.94
2023-05-22T10:05:08.282Z,100141.97
2023-05-22T10:06:35.532Z,100147.09
2023-05-22T10:08:04.154Z,100138.66
2023-05-22T10:09:34.676Z,100133.34
2023-05-22T10:10:58.762Z,100123.38
2023-05-22T10:12:24.939Z,100113.47
2023-05-22T10:13:48.746Z,100115.81
2023-05-22T10:15:12.472Z,100108.31
2023-05-22T10:16:38.463Z,100118.09
2023-05-22T10:18:03.329Z,100106.59
2023-05-22T10:19:42.829Z,100105.25
2023-05-22T10:21:09.546Z,100109.75
2023-05-22T10:22:33.649Z,100109.69
2023-05-22T10:23:57.134Z,100102.97
2023-05-22T10:25:19.903Z,100098.94
2023-05-22T10:26:44.015Z,100104.88
2023-05-22T10:28:07.678Z,100100.00
2023-05-22T10:29:39.795Z,100100.19
2023-05-22T10:31:09.080Z,100104.06
2023-05-22T10:32:57.773Z,100102.81
2023-05-22T10:34:28.153Z,100097.41
2023-05-22T10:35:55.539Z,100091.00
2023-05-22T10:37:33.036Z,100085.72
2023-05-22T10:39:05.568Z,100099.09
2023-05-22T10:40:31.715Z,100089.97
2023-05-22T10:41:53.795Z,100086.00
2023-05-22T10:43:15.763Z,100092.63
2023-05-22T10:44:37.614Z,100092.84
2023-05-22T10:46:04.283Z,100092.66
2023-05-22T10:47:27.660Z,100096.28
2023-05-22T10:48:51.026Z,100092.72
2023-05-22T10:51:18.106Z,100096.38
2023-05-22T10:52:42.021Z,100090.50
2023-05-22T10:54:05.755Z,100092.19
2023-05-22T10:55:29.731Z,100097.63
2023-05-22T10:57:11.180Z,100093.19
2023-05-22T10:58:59.319Z,100094.97
2023-05-22T11:00:30.532Z,100077.03
2023-05-22T11:02:08.096Z,100080.00
2023-05-22T11:03:31.261Z,100098.19
2023-05-22T11:04:56.458Z,100090.50
2023-05-22T11:06:33.902Z,100087.06
2023-05-22T11:08:12.138Z,100072.25
2023-05-22T11:09:35.227Z,100086.50
2023-05-22T11:10:59.314Z,100093.44
2023-05-22T11:12:28.763Z,100083.75
2023-05-22T11:14:03.219Z,100081.69
2023-05-22T11:15:32.548Z,100081.16
2023-05-22T11:17:01.707Z,100088.72
2023-05-22T11:18:23.673Z,100091.06
2023-05-22T11:19:50.555Z,100091.38
2023-05-22T11:21:13.703Z,100086.47
2023-05-22T11:22:37.287Z,100092.88
2023-05-22T11:24:02.788Z,100098.06
2023-05-22T11:25:27.554Z,100086.28
2023-05-22T11:27:03.318Z,100088.38
2023-05-22T11:28:25.730Z,100081.44
2023-05-22T11:29:49.891Z,100092.44
2023-05-22T11:31:12.928Z,100092.16
2023-05-22T11:32:37.719Z,100085.03
2023-05-22T11:34:00.401Z,100080.91
2023-05-22T11:35:23.718Z,100072.84
2023-05-22T11:36:46.074Z,100077.69
2023-05-22T11:38:08.877Z,100079.56
2023-05-22T11:39:34.249Z,100079.47
2023-05-22T11:40:58.872Z,100073.81
2023-05-22T11:42:24.515Z,100085.66
2023-05-22T11:43:46.506Z,100087.59
2023-05-22T11:45:10.169Z,100081.06
2023-05-22T11:46:33.958Z,100077.59
2023-05-22T11:47:56.077Z,100081.16
2023-05-22T11:49:18.405Z,100071.13
2023-05-22T11:50:46.858Z,100066.13
2023-05-22T11:52:10.788Z,100067.03
2023-05-22T11:53:34.245Z,100074.31
2023-05-22T11:54:57.637Z,100073.31
2023-05-22T11:56:23.293Z,100082.69
2023-05-22T11:57:47.390Z,100075.94
2023-05-22T11:59:16.949Z,100072.03
2023-05-22T12:04:50.204Z,100070.59
2023-05-22T12:13:28.671Z,100067.22
2023-05-22T12:14:51.037Z,100071.81
2023-05-22T12:16:30.197Z,100073.06
2023-05-22T12:17:56.774Z,100062.78
2023-05-22T12:19:19.374Z,100070.13
2023-05-22T12:20:44.877Z,100059.81
2023-05-22T12:22:07.557Z,100072.59
2023-05-22T12:23:52.102Z,100062.84
2023-05-22T12:25:18.366Z,100054.94
2023-05-22T12:26:40.743Z,100072.97
2023-05-22T12:28:05.208Z,100053.44
2023-05-22T12:29:29.413Z,100054.03
2023-05-22T12:30:54.430Z,100056.19
2023-05-22T12:32:18.402Z,100055.38
2023-05-22T12:33:42.103Z,100055.97
2023-05-22T12:35:04.059Z,100061.81
2023-05-22T12:36:35.039Z,100071.50
2023-05-22T12:37:59.328Z,100058.00
2023-05-22T12:39:22.700Z,100052.16
2023-05-22T12:40:47.465Z,100065.16
2023-05-22T12:42:09.796Z,100057.69
2023-05-22T12:43:32.264Z,100068.75
2023-05-22T12:44:57.031Z,100058.50
2023-05-22T12:46:19.161Z,100062.41
2023-05-22T12:47:40.477Z,100062.94
2023-05-22T12:49:04.506Z,100057.94
2023-05-22T12:50:29.439Z,100050.13
2023-05-22T12:51:51.794Z,100053.16
2023-05-22T12:53:16.539Z,100044.78
2023-05-22T12:54:39.969Z,100048.00
2023-05-22T12:56:02.242Z,100051.78
2023-05-22T12:57:24.708Z,100052.25
2023-05-22T12:58:46.764Z,100051.69
2023-05-22T13:00:11.425Z,100045.03
2023-05-22T13:01:53.806Z,100040.63
2023-05-22T13:05:24.665Z,100037.47
2023-05-22T13:06:46.685Z,100046.72
2023-05-22T13:08:18.301Z,100046.72
2023-05-22T13:09:41.246Z,100043.16
2023-05-22T13:11:03.862Z,100039.25
2023-05-22T13:13:00.409Z,100041.28
2023-05-22T13:14:26.902Z,100044.78
2023-05-22T13:19:04.279Z,100034.41
2023-05-22T13:21:12.726Z,100035.59
2023-05-22T13:22:39.269Z,100028.63
2023-05-22T13:24:12.568Z,100041.03
2023-05-22T13:25:48.064Z,100030.91
2023-05-22T13:27:33.572Z,100025.25
2023-05-22T13:28:56.331Z,100023.56
2023-05-22T13:30:18.401Z,100019.44
2023-05-22T13:31:40.989Z,100018.19
2023-05-22T13:35:51.993Z,100017.34
2023-05-22T13:37:24.409Z,100022.06
2023-05-22T13:38:46.517Z,100014.13
2023-05-22T13:40:11.200Z,100005.09
2023-05-22T13:41:33.719Z,100006.50
2023-05-22T13:43:09.468Z,100009.09
2023-05-22T13:44:32.392Z,100017.47
2023-05-22T13:46:16.901Z,100009.81
2023-05-22T13:47:42.354Z,100015.41
2023-05-22T13:49:04.900Z,100011.84
2023-05-22T13:50:30.162Z,100011.09
2023-05-22T13:51:52.425Z,100004.81
2023-05-22T13:53:15.884Z,100013.19
2023-05-22T13:54:36.625Z,100007.94
2023-05-22T13:55:58.603Z,100010.75
2023-05-22T13:57:20.538Z,100010.53
2023-05-22T13:58:42.818Z,100007.25
2023-05-22T14:00:08.509Z,100003.41
2023-05-22T14:01:33.795Z,99991.31
2023-05-22T14:02:56.236Z,99994.38
2023-05-22T14:04:18.649Z,99999.63
2023-05-22T14:05:41.202Z,99993.63
2023-05-22T14:07:06.460Z,99991.41
2023-05-22T14:08:30.376Z,99993.63
2023-05-22T14:09:52.751Z,99992.28
2023-05-22T14:11:15.083Z,99987.63
2023-05-22T14:12:37.363Z,99987.63
2023-05-22T14:13:59.513Z,99985.44
2023-05-22T14:15:21.720Z,99981.38
2023-05-22T14:16:47.348Z,99987.44
2023-05-22T14:18:09.468Z,99991.91
2023-05-22T14:19:32.174Z,99976.75
2023-05-22T14:20:54.546Z,99985.84
2023-05-22T14:22:17.185Z,99982.81
2023-05-22T14:23:40.921Z,99984.22
2023-05-22T14:25:03.339Z,99981.78
2023-05-22T14:26:25.574Z,99983.19
2023-05-22T14:27:47.759Z,99973.56
2023-05-22T14:29:09.659Z,99973.84
2023-05-22T14:30:31.669Z,99974.13
2023-05-22T14:31:56.591Z,99974.41
2023-05-22T14:33:18.784Z,99973.06
2023-05-22T14:34:40.824Z,99974.47
2023-05-22T14:36:02.870Z,99976.09
2023-05-22T14:37:25.222Z,99976.97
2023-05-22T14:38:48.982Z,99967.34
2023-05-22T14:40:12.173Z,99968.19
2023-05-22T14:41:34.271Z,99961.88
2023-05-22T14:42:56.398Z,99969.59
2023-05-22T14:44:19.647Z,99965.50
2023-05-22T14:45:44.744Z,99971.31
2023-05-22T14:47:07.274Z,99966.03
2023-05-22T14:48:29.607Z,99969.06
2023-05-22T14:49:52.592Z,99974.91
2023-05-22T14:51:19.429Z,99981.50
2023-05-22T14:52:44.446Z,99964.72
2023-05-22T14:54:08.288Z,99969.69
2023-05-22T14:55:30.022Z,99960.63
2023-05-22T14:56:52.088Z,99957.09
2023-05-22T14:58:14.850Z,99964.50
2023-05-22T14:59:38.795Z,99963.09
2023-05-22T15:01:01.044Z,99952.69
2023-05-22T15:02:24.844Z,99963.16
2023-05-22T15:03:47.502Z,99961.50
2023-05-22T15:05:10.836Z,99965.09
2023-05-22T15:06:33.631Z,99962.69
2023-05-22T15:07:58.635Z,99957.16
2023-05-22T15:09:22.535Z,99946.44
2023-05-22T15:10:44.797Z,99960.47
2023-05-22T15:12:07.629Z,99952.50
2023-05-22T15:13:32.369Z,99951.97
2023-05-22T15:14:57.209Z,99954.19
2023-05-22T15:16:20.067Z,99951.69
2023-05-22T15:17:43.168Z,99949.25
2023-05-22T15:19:05.299Z,99945.94
2023-05-22T15:20:27.519Z,99936.31
2023-05-22T15:21:50.186Z,99942.66
2023-05-22T15:23:12.223Z,99931.13
2023-05-22T15:24:36.107Z,99927.28
2023-05-22T15:25:58.538Z,99933.03
2023-05-22T15:27:20.698Z,99935.25
2023-05-22T15:28:42.787Z,99929.72
2023-05-22T15:30:06.824Z,99922.84
2023-05-22T15:31:30.360Z,99923.97
2023-05-22T15:32:52.670Z,99918.19
2023-05-22T15:34:15.329Z,99915.16
2023-05-22T15:35:37.904Z,99922.31
2023-05-22T15:37:00.495Z,99926.19
2023-05-22T15:38:23.912Z,99919.28
2023-05-22T15:39:48.136Z,99914.34
2023-05-22T15:41:10.676Z,99913.00
2023-05-22T15:42:35.993Z,99922.84
2023-05-22T15:43:58.659Z,99911.88
2023-05-22T15:45:22.061Z,99914.91
2023-05-22T15:46:45.508Z,99904.41
2023-05-22T15:48:10.927Z,99899.25
2023-05-22T15:49:33.331Z,99913.22
2023-05-22T15:50:55.887Z,99916.81
2023-05-22T15:52:22.651Z,99914.34
2023-05-22T15:53:47.574Z,99904.19
2023-05-22T15:55:11.536Z,99916.56
2023-05-22T15:56:37.203Z,99909.13
2023-05-22T15:58:02.799Z,99909.16
2023-05-22T15:59:25.019Z,99907.22
2023-05-22T16:00:47.123Z,99897.03
2023-05-22T16:02:09.632Z,99910.53
2023-05-22T16:03:34.404Z,99907.25
2023-05-22T16:04:56.619Z,99903.91
2023-05-22T16:06:23.390Z,99903.41
2023-05-22T16:07:48.580Z,99899.28
2023-05-22T16:09:11.257Z,99893.28
2023-05-22T16:10:35.406Z,99888.84
2023-05-22T16:11:57.650Z,99893.53
2023-05-22T16:13:20.433Z,99894.34
2023-05-22T16:14:42.415Z,99885.56
2023-05-22T16:16:06.088Z,99891.06
2023-05-22T16:17:28.567Z,99890.25
2023-05-22T16:18:50.699Z,99883.38
2023-05-22T16:20:13.152Z,99879.00
2023-05-22T16:21:35.115Z,99892.72
2023-05-22T16:22:57.638Z,99880.91
2023-05-22T16:24:20.668Z,99890.78
2023-05-22T16:25:44.831Z,99880.38
2023-05-22T16:27:10.580Z,99894.94
2023-05-22T16:28:32.275Z,99887.22
2023-05-22T16:29:54.804Z,99883.97
2023-05-22T16:31:19.588Z,99889.69
2023-05-22T16:32:42.407Z,99899.63
2023-05-22T16:34:06.229Z,99899.91
2023-05-22T16:35:29.879Z,99897.72
2023-05-22T16:36:52.734Z,99892.78
2023-05-22T16:38:15.112Z,99897.72
2023-05-22T16:39:39.946Z,99890.31
2023-05-22T16:41:06.246Z,99900.75
2023-05-22T16:42:29.183Z,99888.38
2023-05-22T16:43:51.923Z,99895.56
2023-05-22T16:45:14.220Z,99891.16
2023-05-22T16:46:36.547Z,99898.03
2023-05-22T16:47:59.212Z,99903.28
2023-05-22T16:49:24.279Z,99897.50
2023-05-22T16:50:46.951Z,99892.03
2023-05-22T16:52:09.496Z,99894.28